This is the latest recevied weather packets stored in our database for station/object KD4IZ-13. If no packets are shown the sender has not sent any weather packets the latest 1 day(s).
| Time | Temp. | Humidity | Pressure | Rain* | Wind** | Luminosity | Snow |
|---|---|---|---|---|---|---|---|
| 1778045563 | 21.11° C | 62% | 1011.8 hPa | 0 mm | 2.68 m/s, 193° | 0 W/m² | - |
| 1778045260 | 21.11° C | 62% | 1011.6 hPa | 0 mm | 1.79 m/s, 256° | 0 W/m² | - |
| 1778044959 | 21.11° C | 61% | 1011.7 hPa | 0 mm | 3.13 m/s, 243° | 0 W/m² | - |
| 1778044656 | 21.11° C | 62% | 1011.7 hPa | 0 mm | 2.68 m/s, 236° | 0 W/m² | - |
| 1778044352 | 21.11° C | 62% | 1011.9 hPa | 0 mm | 2.24 m/s, 265° | 0 W/m² | - |
| 1778044050 | 21.11° C | 61% | 1011.8 hPa | 0 mm | 2.24 m/s, 262° | 0 W/m² | - |
| 1778043747 | 21.11° C | 60% | 1012 hPa | 0 mm | 4.47 m/s, 215° | 0 W/m² | - |
| 1778043444 | 21.67° C | 60% | 1011.9 hPa | 0 mm | 2.24 m/s, 243° | 0 W/m² | - |
| 1778043140 | 21.11° C | 60% | 1011.9 hPa | 0 mm | 4.02 m/s, 208° | 0 W/m² | - |
| 1778042838 | 21.67° C | 59% | 1011.8 hPa | 0 mm | 1.79 m/s, 237° | 0 W/m² | - |
| 1778042535 | 21.67° C | 59% | 1012 hPa | 0 mm | 2.24 m/s, 225° | 0 W/m² | - |
| 1778042233 | 21.11° C | 59% | 1012 hPa | 0 mm | 2.68 m/s, 206° | 0 W/m² | - |
| 1778041930 | 21.11° C | 59% | 1011.9 hPa | 0 mm | 2.24 m/s, 196° | 0 W/m² | - |
| 1778041629 | 21.11° C | 58% | 1012 hPa | 0 mm | 4.02 m/s, 250° | 0 W/m² | - |
| 1778041327 | 21.11° C | 58% | 1012 hPa | 0 mm | 3.13 m/s, 206° | 0 W/m² | - |
| 1778041025 | 21.11° C | 58% | 1011.8 hPa | 0 mm | 3.58 m/s, 244° | 0 W/m² | - |
| 1778040721 | 21.11° C | 58% | 1011.9 hPa | 0 mm | 0.45 m/s, 148° | 0 W/m² | - |
| 1778040419 | 21.11° C | 57% | 1011.7 hPa | 0 mm | 2.24 m/s, 244° | 0 W/m² | - |
| 1778040116 | 21.67° C | 56% | 1011.9 hPa | 0 mm | 3.58 m/s, 216° | 0 W/m² | - |
| 1778039813 | 21.67° C | 56% | 1012 hPa | 0 mm | 1.79 m/s, 109° | 0 W/m² | - |
| 1778039510 | 21.67° C | 55% | 1011.7 hPa | 0 mm | 4.02 m/s, 208° | 0 W/m² | - |
| 1778039206 | 21.67° C | 56% | 1012 hPa | 0 mm | 2.24 m/s, 210° | 0 W/m² | - |
| 1778038904 | 21.67° C | 56% | 1011.9 hPa | 0 mm | 2.68 m/s, 239° | 0 W/m² | - |
| 1778038601 | 21.11° C | 55% | 1011.8 hPa | 0 mm | 2.68 m/s, 248° | 0 W/m² | - |
| 1778038297 | 21.67° C | 55% | 1011.8 hPa | 0 mm | 2.24 m/s, 162° | 0 W/m² | - |
* Rain latest hour (hover to see other rain measurements)
** Current wind speed in m/s (hover to see current wind gust speed)